Time;durP1;ratioP1;P1;durP2;ratioP2;P2;SDS_P1;SDS_P2;PMS_P1;PMS_P2;Temp;Humidity;BMP_temperature;BMP_pressure;BME280_temperature;BME280_humidity;BME280_pressure;Samples;Min_cycle;Max_cycle;Signal;HPM_P1;HPM_P2
2023/05/19 00:00:23;;;;;;;4.10;1.33;;;;;;;9.15;100.00;99264.22;5029322;28;20176;-77
2023/05/19 00:02:49;;;;;;;10.43;1.73;;;;;;;9.21;100.00;99265.34;5038714;28;20100;-75
2023/05/19 00:05:17;;;;;;;7.95;1.42;;;;;;;9.13;100.00;99246.53;5026586;28;20036;-76
2023/05/19 00:07:43;;;;;;;7.10;1.40;;;;;;;9.30;100.00;99269.66;5038205;28;20067;-74
2023/05/19 00:10:09;;;;;;;6.43;1.50;;;;;;;9.22;100.00;99267.00;5033835;28;20033;-75
2023/05/19 00:12:36;;;;;;;7.15;2.83;;;;;;;9.17;100.00;99270.28;5042470;28;20025;-75
2023/05/19 00:15:01;;;;;;;8.15;1.55;;;;;;;9.16;100.00;99256.94;5034900;28;20026;-75
2023/05/19 00:17:26;;;;;;;4.10;2.05;;;;;;;9.21;100.00;99265.34;5043739;28;20029;-74
2023/05/19 00:19:53;;;;;;;7.43;1.70;;;;;;;9.16;100.00;99262.34;5031508;28;20399;-75
2023/05/19 00:22:18;;;;;;;4.13;2.03;;;;;;;9.21;100.00;99268.88;5037537;28;20032;-75
2023/05/19 00:24:44;;;;;;;8.80;1.60;;;;;;;9.09;100.00;99250.59;5028160;28;20022;-75
2023/05/19 00:27:09;;;;;;;3.47;1.30;;;;;;;9.18;100.00;99257.59;5029941;28;20025;-76
2023/05/19 00:29:35;;;;;;;10.77;2.00;;;;;;;9.11;100.00;99251.25;5031558;28;20021;-75
2023/05/19 00:32:00;;;;;;;6.85;1.90;;;;;;;9.03;100.00;99248.63;5045977;28;20025;-75
2023/05/19 00:34:25;;;;;;;5.85;1.63;;;;;;;9.16;100.00;99257.78;5035467;28;20051;-75
2023/05/19 00:36:51;;;;;;;4.85;1.85;;;;;;;9.05;100.00;99252.84;5042563;28;20051;-75
2023/05/19 00:39:16;;;;;;;6.28;2.00;;;;;;;8.84;100.00;99218.44;5040967;28;20028;-75
2023/05/19 00:41:41;;;;;;;3.55;1.75;;;;;;;8.97;100.00;99237.56;5036805;28;20028;-75
2023/05/19 00:44:06;;;;;;;9.65;1.90;;;;;;;8.93;100.00;99246.19;5049176;28;20025;-75
2023/05/19 00:46:32;;;;;;;2.17;1.23;;;;;;;9.00;100.00;99253.38;5023243;28;20018;-74
2023/05/19 00:48:58;;;;;;;2.75;1.30;;;;;;;8.78;100.00;99203.00;5041624;28;20032;-75
2023/05/19 00:51:25;;;;;;;7.28;1.77;;;;;;;8.97;100.00;99232.16;5043442;28;20036;-75
2023/05/19 00:53:51;;;;;;;3.65;1.25;;;;;;;8.99;100.00;99243.59;5045849;28;20486;-75
2023/05/19 00:56:17;;;;;;;7.38;2.28;;;;;;;8.97;100.00;99228.63;5033776;28;20021;-74
2023/05/19 00:58:44;;;;;;;8.68;1.88;;;;;;;9.11;100.00;99246.69;5040659;28;20436;-75
2023/05/19 01:01:10;;;;;;;5.47;1.98;;;;;;;9.00;100.00;99236.34;5037536;28;20053;-74
2023/05/19 01:03:36;;;;;;;6.97;2.25;;;;;;;8.96;100.00;99224.22;5036037;28;20025;-75
2023/05/19 01:06:04;;;;;;;5.97;1.60;;;;;;;8.91;100.00;99229.38;5032689;28;20076;-75
2023/05/19 01:08:31;;;;;;;6.50;1.75;;;;;;;8.97;100.00;99245.66;5051776;28;20028;-76
2023/05/19 01:10:57;;;;;;;4.40;1.42;;;;;;;8.82;100.00;99219.66;5026677;28;20033;-74
2023/05/19 01:13:23;;;;;;;6.25;1.67;;;;;;;8.80;100.00;99219.81;5052134;28;20020;-75
2023/05/19 01:16:26;;;;;;;8.10;1.80;;;;;;;8.93;100.00;99238.94;5033047;28;20557;-75
2023/05/19 01:19:00;;;;;;;4.25;1.67;;;;;;;8.94;100.00;99237.09;5041217;28;20041;-74
2023/05/19 01:21:50;;;;;;;9.45;2.10;;;;;;;8.88;100.00;99241.34;5022543;28;20487;-77
2023/05/19 01:24:46;;;;;;;6.30;1.80;;;;;;;8.95;100.00;99244.97;5031842;28;20033;-75
2023/05/19 01:27:20;;;;;;;4.35;1.95;;;;;;;9.09;100.00;99261.41;5033247;28;20021;-77
2023/05/19 01:30:07;;;;;;;8.00;2.05;;;;;;;9.17;100.00;99258.66;5034731;28;20071;-74
2023/05/19 01:32:34;;;;;;;5.07;1.60;;;;;;;9.31;100.00;99249.72;5020852;28;20056;-74
2023/05/19 01:35:03;;;;;;;5.25;1.88;;;;;;;9.32;100.00;99240.59;5032233;28;20026;-75
2023/05/19 01:37:29;;;;;;;7.93;2.00;;;;;;;9.52;100.00;99240.06;5042915;28;20020;-74
2023/05/19 01:39:54;;;;;;;8.13;1.67;;;;;;;9.66;100.00;99250.00;5043825;28;20537;-75
2023/05/19 01:42:22;;;;;;;9.95;1.98;;;;;;;9.56;100.00;99226.00;5031769;28;20040;-74
2023/05/19 01:44:48;;;;;;;12.40;1.67;;;;;;;9.60;100.00;99229.16;5042245;28;20430;-75
2023/05/19 01:47:14;;;;;;;8.63;1.83;;;;;;;9.65;100.00;99224.88;5034221;28;20034;-75
2023/05/19 01:49:39;;;;;;;4.40;1.80;;;;;;;9.75;100.00;99234.56;5033297;28;20032;-75
2023/05/19 01:52:05;;;;;;;7.57;1.98;;;;;;;9.71;100.00;99228.69;5040181;28;20017;-74
2023/05/19 01:54:30;;;;;;;6.30;1.60;;;;;;;9.90;100.00;99239.94;5033277;28;20112;-73
2023/05/19 01:57:08;;;;;;;4.78;1.52;;;;;;;9.88;100.00;99243.69;5041247;28;20020;-74
2023/05/19 01:59:58;;;;;;;7.07;1.75;;;;;;;9.88;100.00;99235.56;5032445;28;20033;-74
2023/05/19 02:02:43;;;;;;;5.57;1.80;;;;;;;10.01;100.00;99251.13;5023316;28;20145;-75
2023/05/19 02:05:39;;;;;;;8.55;2.72;;;;;;;10.04;100.00;99253.44;5036651;28;20021;-74
2023/05/19 02:08:22;;;;;;;10.90;1.80;;;;;;;10.07;100.00;99257.63;5011841;28;20531;-74
2023/05/19 02:11:01;;;;;;;2.58;1.50;;;;;;;10.09;100.00;99259.13;5040716;28;20387;-77
2023/05/19 02:13:35;;;;;;;8.02;1.95;;;;;;;10.10;100.00;99254.53;5013200;28;20428;-73
2023/05/19 02:16:04;;;;;;;4.05;1.30;;;;;;;9.98;100.00;99240.69;5020789;28;20037;-74
2023/05/19 02:18:34;;;;;;;3.55;1.50;;;;;;;10.03;100.00;99257.19;5043962;28;20438;-73
2023/05/19 02:21:00;;;;;;;3.83;1.60;;;;;;;10.02;100.00;99251.94;5036908;28;20519;-73
2023/05/19 02:23:25;;;;;;;4.25;1.60;;;;;;;9.75;100.00;99230.00;5046859;28;20104;-73
2023/05/19 02:25:50;;;;;;;6.35;1.83;;;;;;;9.80;100.00;99265.41;5041059;28;20092;-73
2023/05/19 02:28:16;;;;;;;4.90;1.63;;;;;;;9.49;100.00;99224.22;5034804;28;20040;-73
2023/05/19 02:30:41;;;;;;;9.02;1.67;;;;;;;9.63;100.00;99263.91;5038889;28;20471;-73
2023/05/19 02:33:06;;;;;;;7.88;1.77;;;;;;;9.39;100.00;99225.31;5033935;28;20420;-74
2023/05/19 02:35:32;;;;;;;3.35;1.65;;;;;;;9.33;100.00;99228.78;5029714;28;20025;-73
2023/05/19 02:37:58;;;;;;;7.47;2.13;;;;;;;9.32;100.00;99235.19;5027729;28;20029;-73
2023/05/19 02:40:23;;;;;;;4.38;1.65;;;;;;;9.41;100.00;99250.28;5045946;28;20034;-73
2023/05/19 02:42:48;;;;;;;6.28;2.08;;;;;;;9.30;100.00;99253.44;5040361;28;20105;-73
2023/05/19 02:45:14;;;;;;;7.45;1.90;;;;;;;9.09;100.00;99223.59;5031297;28;20116;-73
2023/05/19 02:47:40;;;;;;;6.82;1.83;;;;;;;9.17;100.00;99245.16;5043364;28;20029;-73
2023/05/19 02:50:06;;;;;;;5.47;1.67;;;;;;;9.08;100.00;99230.88;5032489;28;20853;-73
2023/05/19 02:52:31;;;;;;;8.40;1.70;;;;;;;9.14;100.00;99238.25;5031347;28;20606;-73
2023/05/19 02:54:57;;;;;;;9.02;2.00;;;;;;;9.16;100.00;99244.28;5028485;28;20094;-73
2023/05/19 02:57:22;;;;;;;8.77;2.83;;;;;;;9.12;100.00;99234.06;5034676;28;20067;-73
2023/05/19 02:59:48;;;;;;;4.68;1.58;;;;;;;9.11;100.00;99237.75;5030926;28;20056;-73
2023/05/19 03:02:13;;;;;;;8.10;2.28;;;;;;;8.93;100.00;99216.50;5033294;28;20041;-74
2023/05/19 03:04:41;;;;;;;5.40;2.10;;;;;;;8.88;100.00;99219.78;5031291;28;20033;-73
2023/05/19 03:07:08;;;;;;;7.15;1.60;;;;;;;8.95;100.00;99244.97;5036697;28;20021;-73
2023/05/19 03:09:37;;;;;;;5.75;2.17;;;;;;;8.84;100.00;99223.84;5039555;28;20029;-73
2023/05/19 03:12:03;;;;;;;6.60;1.70;;;;;;;8.81;100.00;99251.19;5047211;28;20025;-73
2023/05/19 03:14:29;;;;;;;5.55;1.55;;;;;;;8.66;100.00;99234.09;5031746;28;20030;-73
2023/05/19 03:16:54;;;;;;;6.07;1.92;;;;;;;8.58;100.00;99231.47;5032501;28;20048;-75
2023/05/19 03:19:20;;;;;;;8.90;1.90;;;;;;;8.49;100.00;99233.41;5026358;28;20364;-77
2023/05/19 03:21:46;;;;;;;8.00;2.08;;;;;;;8.41;100.00;99234.28;5036209;28;20028;-74
2023/05/19 03:24:12;;;;;;;6.20;1.88;;;;;;;8.43;100.00;99251.09;5031792;28;20031;-75
2023/05/19 03:26:37;;;;;;;7.53;1.83;;;;;;;8.30;100.00;99245.44;5032082;28;20022;-74
2023/05/19 03:29:02;;;;;;;5.50;1.63;;;;;;;8.22;100.00;99240.09;5036299;28;20398;-75
2023/05/19 03:31:29;;;;;;;4.22;1.83;;;;;;;8.13;100.00;99228.53;5029529;28;20026;-74
2023/05/19 03:33:56;;;;;;;6.35;1.92;;;;;;;8.10;100.00;99235.13;5032420;28;20431;-75
2023/05/19 03:36:22;;;;;;;6.57;2.20;;;;;;;8.16;100.00;99248.91;5031490;28;20026;-74
2023/05/19 03:38:47;;;;;;;7.82;1.98;;;;;;;7.97;100.00;99234.84;5027960;28;20030;-74
2023/05/19 03:41:13;;;;;;;6.10;2.03;;;;;;;8.07;100.00;99257.03;5039568;28;20057;-74
2023/05/19 03:43:38;;;;;;;7.20;1.67;;;;;;;7.97;100.00;99234.84;5024524;28;20498;-74
2023/05/19 03:46:03;;;;;;;6.05;1.95;;;;;;;8.06;100.00;99252.63;5047482;28;20013;-74
2023/05/19 03:48:29;;;;;;;6.03;1.67;;;;;;;7.98;100.00;99257.22;5043048;28;20026;-75
2023/05/19 03:50:54;;;;;;;8.77;2.10;;;;;;;7.73;100.00;99216.94;5032637;28;20018;-75
2023/05/19 03:53:19;;;;;;;5.15;1.42;;;;;;;7.81;100.00;99233.06;5052061;28;20546;-74
2023/05/19 03:55:46;;;;;;;4.68;1.67;;;;;;;7.84;100.00;99239.97;5037271;28;20029;-75
2023/05/19 03:58:13;;;;;;;4.07;1.48;;;;;;;7.86;100.00;99246.03;5032660;28;20368;-74
2023/05/19 04:00:38;;;;;;;4.80;1.98;;;;;;;7.97;100.00;99256.41;5033690;28;20024;-74
2023/05/19 04:03:04;;;;;;;6.95;1.70;;;;;;;8.00;100.00;99260.59;5030110;28;20033;-74
2023/05/19 04:05:30;;;;;;;5.25;1.85;;;;;;;8.06;100.00;99260.72;5034247;28;20049;-75
2023/05/19 04:07:55;;;;;;;4.47;1.80;;;;;;;8.11;100.00;99268.28;5034187;28;20036;-74
2023/05/19 04:10:20;;;;;;;3.95;1.85;;;;;;;8.02;100.00;99247.78;5033525;28;20110;-74
2023/05/19 04:12:46;;;;;;;6.97;2.13;;;;;;;8.18;100.00;99274.66;5040362;28;20021;-77
2023/05/19 04:15:12;;;;;;;4.78;1.70;;;;;;;8.17;100.00;99242.47;5036371;28;20079;-77
2023/05/19 04:17:38;;;;;;;5.38;1.80;;;;;;;8.20;100.00;99255.59;5037674;28;20033;-83
2023/05/19 04:20:05;;;;;;;4.05;1.85;;;;;;;8.29;100.00;99244.59;5046350;28;20021;-79
2023/05/19 04:22:30;;;;;;;7.22;1.92;;;;;;;8.35;100.00;99249.28;5047360;28;20064;-81
2023/05/19 04:24:57;;;;;;;7.47;2.00;;;;;;;8.48;100.00;99261.38;5047443;28;20021;-81
2023/05/19 04:27:22;;;;;;;5.78;1.80;;;;;;;8.58;100.00;99258.44;5045156;28;20122;-81
2023/05/19 04:29:48;;;;;;;4.18;1.60;;;;;;;8.71;100.00;99258.69;5038713;28;20013;-79
2023/05/19 04:32:16;;;;;;;4.20;1.63;;;;;;;8.73;100.00;99243.16;5046477;28;20065;-83
2023/05/19 04:34:43;;;;;;;6.97;2.20;;;;;;;9.01;100.00;99275.78;5048542;28;20068;-78
2023/05/19 04:37:10;;;;;;;4.70;1.70;;;;;;;9.06;100.00;99259.06;5059443;28;20032;-83
2023/05/19 04:39:41;;;;;;;11.50;2.22;;;;;;;9.34;100.00;99270.13;5044036;28;20056;-77
2023/05/19 04:42:07;;;;;;;6.47;1.65;;;;;;;9.29;100.00;99251.75;5043972;28;20075;-78
2023/05/19 04:44:33;;;;;;;3.30;1.73;;;;;;;9.46;100.00;99247.03;5035296;28;20017;-77
2023/05/19 04:46:58;;;;;;;3.67;1.40;;;;;;;9.47;100.00;99239.78;5044731;28;20475;-79
2023/05/19 04:49:24;;;;;;;6.25;1.90;;;;;;;9.77;100.00;99252.25;5053343;28;20013;-76
2023/05/19 04:51:50;;;;;;;6.32;1.60;;;;;;;9.97;100.00;99266.03;5048631;28;20025;-73
2023/05/19 04:54:15;;;;;;;3.50;2.05;;;;;;;9.97;100.00;99244.41;5046902;28;20029;-76
2023/05/19 04:56:42;;;;;;;3.08;1.63;;;;;;;10.16;100.00;99242.13;5031698;28;20391;-76
2023/05/19 04:59:08;;;;;;;4.47;1.42;;;;;;;10.44;100.00;99272.88;5031119;28;20030;-76
2023/05/19 05:01:34;;;;;;;3.72;1.45;;;;;;;10.40;100.00;99238.25;5047783;28;20109;-77
2023/05/19 05:04:01;;;;;;;7.38;2.35;;;;;;;10.53;100.00;99249.22;5051634;28;20035;-77
2023/05/19 05:06:27;;;;;;;5.25;2.03;;;;;;;10.83;100.00;99249.94;5046609;28;20380;-78
2023/05/19 05:08:52;;;;;;;7.18;2.00;;;;;;;11.15;100.00;99247.72;5038261;28;20087;-78
2023/05/19 05:11:18;;;;;;;7.03;1.80;;;;;;;11.32;100.00;99248.28;5049713;28;20052;-83
2023/05/19 05:13:43;;;;;;;9.02;1.70;;;;;;;11.49;100.00;99222.53;5070586;28;20029;-79
2023/05/19 05:16:10;;;;;;;8.48;2.70;;;;;;;11.96;100.00;99252.66;5043352;28;20037;-78
2023/05/19 05:18:37;;;;;;;4.68;1.58;;;;;;;12.33;100.00;99261.34;5034767;28;20026;-74
2023/05/19 05:21:03;;;;;;;5.18;1.58;;;;;;;12.47;100.00;99268.50;5033726;28;20048;-75
2023/05/19 05:23:29;;;;;;;9.02;1.70;;;;;;;12.60;100.00;99235.97;5034791;28;20515;-82
2023/05/19 05:25:55;;;;;;;5.53;1.50;;;;;;;12.82;100.00;99238.50;5055540;28;20033;-80
2023/05/19 05:28:20;;;;;;;10.18;2.03;;;;;;;12.58;100.00;99223.66;5056817;28;20010;-83
2023/05/19 05:30:59;;;;;;;5.00;2.10;;;;;;;13.11;100.00;99232.66;5052388;28;20036;-85
2023/05/19 05:33:32;;;;;;;6.22;2.03;;;;;;;13.33;100.00;99252.31;5017754;28;20387;-83
2023/05/19 05:35:57;;;;;;;5.75;1.52;;;;;;;13.45;100.00;99260.69;5018788;28;20439;-71
2023/05/19 05:38:22;;;;;;;4.47;1.67;;;;;;;14.09;100.00;99250.91;5032514;28;20021;-70
2023/05/19 05:40:48;;;;;;;5.93;1.90;;;;;;;14.42;100.00;99244.50;5024046;28;20037;-71
2023/05/19 05:43:13;;;;;;;9.65;1.70;;;;;;;14.46;100.00;99222.06;5033010;28;20033;-83
2023/05/19 05:45:38;;;;;;;8.23;1.60;;;;;;;14.72;100.00;99249.38;5032578;28;20586;-73
2023/05/19 05:48:04;;;;;;;6.45;1.83;;;;;;;14.47;100.00;99240.06;5035175;28;20036;-73
2023/05/19 05:50:30;;;;;;;6.25;1.73;;;;;;;14.85;100.00;99241.94;5036473;28;20024;-74
2023/05/19 05:52:56;;;;;;;10.27;2.30;;;;;;;14.53;100.00;99234.81;5029094;28;20149;-74
2023/05/19 05:55:22;;;;;;;5.93;1.70;;;;;;;14.84;100.00;99234.00;5027349;28;20017;-73
2023/05/19 05:57:49;;;;;;;11.07;2.20;;;;;;;14.95;100.00;99230.56;5031816;28;20022;-74
2023/05/19 06:00:15;;;;;;;10.23;2.25;;;;;;;15.36;100.00;99250.16;5029659;28;20132;-73
2023/05/19 06:02:49;;;;;;;7.45;1.95;;;;;;;15.39;100.00;99245.06;5031684;28;20461;-75
2023/05/19 06:05:15;;;;;;;8.55;2.10;;;;;;;15.45;100.00;99230.53;5031821;28;20040;-74
2023/05/19 06:07:40;;;;;;;9.45;1.92;;;;;;;15.61;100.00;99234.56;5030087;28;20021;-74
2023/05/19 06:10:07;;;;;;;9.25;1.95;;;;;;;15.91;100.00;99247.53;5029251;28;20821;-73
2023/05/19 06:12:33;;;;;;;5.57;1.90;;;;;;;16.07;100.00;99238.72;5042335;28;20104;-74
2023/05/19 06:14:58;;;;;;;9.05;1.80;;;;;;;15.99;96.29;99230.84;5034613;28;20028;-74
2023/05/19 06:17:24;;;;;;;5.38;2.03;;;;;;;16.21;91.36;99231.19;5028158;28;20026;-74
2023/05/19 06:19:49;;;;;;;7.43;2.10;;;;;;;16.63;88.58;99223.88;5035963;28;20104;-73
2023/05/19 06:22:14;;;;;;;5.25;1.88;;;;;;;17.04;84.55;99213.22;5036269;28;20474;-73
2023/05/19 06:24:40;;;;;;;4.80;1.67;;;;;;;17.15;82.16;99244.38;5029002;28;20017;-73
2023/05/19 06:27:05;;;;;;;5.40;2.00;;;;;;;17.46;78.98;99215.88;5038336;28;20026;-70
2023/05/19 06:29:31;;;;;;;7.57;2.10;;;;;;;17.32;77.25;99209.81;5033218;28;20538;-70
2023/05/19 06:31:56;;;;;;;7.50;2.47;;;;;;;16.95;76.86;99228.28;5028046;28;20061;-70
2023/05/19 06:34:21;;;;;;;8.15;1.90;;;;;;;18.28;75.24;99223.13;5033808;28;20044;-74
2023/05/19 06:36:47;;;;;;;9.43;1.90;;;;;;;19.12;68.12;99222.50;5030858;28;20083;-71
2023/05/19 06:39:12;;;;;;;5.63;1.85;;;;;;;20.03;67.16;99234.03;5030901;28;20391;-71
2023/05/19 06:41:37;;;;;;;4.68;2.13;;;;;;;20.56;62.79;99212.44;5035833;28;20021;-73
2023/05/19 06:44:03;;;;;;;4.18;1.40;;;;;;;19.20;65.27;99216.59;5027578;28;20036;-72
2023/05/19 06:46:30;;;;;;;7.93;2.00;;;;;;;18.03;68.00;99232.50;5024494;28;20092;-72
2023/05/19 06:48:55;;;;;;;5.95;2.00;;;;;;;17.65;69.80;99220.13;5038548;28;20053;-72
2023/05/19 06:51:21;;;;;;;6.97;1.65;;;;;;;16.96;72.99;99239.00;5038241;28;20098;-70
2023/05/19 06:53:49;;;;;;;8.20;2.40;;;;;;;16.98;73.19;99225.94;5030893;28;20480;-71
2023/05/19 06:56:15;;;;;;;7.80;1.90;;;;;;;17.14;73.02;99229.88;5034137;28;20427;-71
2023/05/19 06:58:40;;;;;;;8.68;2.33;;;;;;;17.32;73.22;99237.16;5034345;28;20488;-71
2023/05/19 07:01:05;;;;;;;7.75;1.75;;;;;;;17.62;70.82;99250.72;5026435;28;20395;-71
2023/05/19 07:03:31;;;;;;;5.85;2.15;;;;;;;17.95;71.99;99241.09;5026548;28;20025;-72
2023/05/19 07:05:56;;;;;;;9.35;2.10;;;;;;;18.77;66.27;99232.59;5032507;28;20029;-72
2023/05/19 07:08:21;;;;;;;3.60;1.67;;;;;;;19.10;64.81;99236.47;5030568;28;20025;-72
2023/05/19 07:10:46;;;;;;;5.30;1.92;;;;;;;19.24;65.05;99226.00;5038134;28;20086;-72
2023/05/19 07:13:12;;;;;;;6.65;1.65;;;;;;;19.21;62.71;99227.31;5038694;28;20021;-72
2023/05/19 07:15:37;;;;;;;5.88;2.00;;;;;;;19.62;61.63;99236.22;5029504;28;20024;-72
2023/05/19 07:18:02;;;;;;;9.65;2.25;;;;;;;20.86;60.77;99231.19;5030470;28;20479;-72
2023/05/19 07:20:28;;;;;;;9.13;1.83;;;;;;;21.94;56.94;99210.78;5018927;28;20447;-72
2023/05/19 07:22:53;;;;;;;7.43;1.92;;;;;;;22.02;54.31;99199.25;5024583;28;20025;-72
2023/05/19 07:25:19;;;;;;;6.10;2.20;;;;;;;22.37;54.56;99225.31;5034037;28;20125;-72
2023/05/19 07:27:44;;;;;;;5.85;1.70;;;;;;;22.13;53.96;99219.41;5036641;28;20033;-72
2023/05/19 07:30:10;;;;;;;5.93;2.10;;;;;;;22.34;53.55;99225.88;5031399;28;20026;-73
2023/05/19 07:32:36;;;;;;;10.38;2.20;;;;;;;20.11;56.26;99219.03;5026102;28;20018;-72
2023/05/19 07:35:01;;;;;;;4.75;1.60;;;;;;;19.01;60.34;99213.28;5027375;28;20027;-72
2023/05/19 07:37:26;;;;;;;5.30;2.08;;;;;;;18.36;63.66;99209.03;5024913;28;20030;-71
2023/05/19 07:39:52;;;;;;;11.15;2.42;;;;;;;18.06;67.40;99214.75;5028971;28;20029;-73
2023/05/19 07:42:17;;;;;;;6.63;1.88;;;;;;;17.67;69.53;99223.47;5042802;28;20444;-72
2023/05/19 07:44:42;;;;;;;8.57;1.70;;;;;;;17.49;72.09;99232.63;5038502;28;20163;-72
2023/05/19 07:47:08;;;;;;;5.95;2.08;;;;;;;16.96;73.49;99208.94;5030738;28;20036;-72
2023/05/19 07:49:33;;;;;;;9.05;2.28;;;;;;;16.79;77.03;99230.66;5030347;28;20045;-71
2023/05/19 07:51:58;;;;;;;7.72;2.47;;;;;;;16.83;78.38;99204.50;5030114;28;20021;-72
2023/05/19 07:54:23;;;;;;;9.05;2.10;;;;;;;16.90;77.74;99211.75;5028686;28;20036;-72
2023/05/19 07:56:49;;;;;;;8.82;2.10;;;;;;;16.82;77.28;99208.31;5015736;28;20029;-72
2023/05/19 07:59:14;;;;;;;8.80;2.03;;;;;;;17.18;76.16;99225.59;5030722;28;20700;-73
2023/05/19 08:01:40;;;;;;;6.40;1.70;;;;;;;17.36;77.87;99208.25;5033324;28;20379;-81
2023/05/19 08:04:05;;;;;;;9.77;1.80;;;;;;;17.47;74.91;99182.78;5022364;28;20104;-76
2023/05/19 08:06:30;;;;;;;3.90;1.80;;;;;;;17.63;73.03;99173.03;5045350;28;20021;-74
2023/05/19 08:08:56;;;;;;;5.53;1.90;;;;;;;18.36;72.07;99206.31;5035259;28;20030;-79
2023/05/19 08:11:21;;;;;;;6.38;1.85;;;;;;;18.29;70.09;99194.69;5034492;28;20402;-84
2023/05/19 08:13:50;;;;;;;6.40;1.85;;;;;;;18.11;70.84;99212.94;5023626;28;20061;-74
2023/05/19 08:16:15;;;;;;;7.07;2.40;;;;;;;18.49;67.91;99186.00;5025581;28;20100;-74
2023/05/19 08:18:41;;;;;;;9.35;2.20;;;;;;;18.13;70.05;99180.69;5037093;28;20048;-74
2023/05/19 08:21:06;;;;;;;7.97;1.90;;;;;;;17.96;70.43;99204.41;5022950;28;20029;-76
2023/05/19 08:23:32;;;;;;;5.45;2.00;;;;;;;18.28;70.27;99207.53;5031043;28;20112;-76
2023/05/19 08:25:57;;;;;;;4.20;1.92;;;;;;;18.26;70.32;99190.53;5029924;28;20017;-75
2023/05/19 08:28:23;;;;;;;7.32;1.90;;;;;;;17.87;71.69;99190.28;5030997;28;20025;-77
2023/05/19 08:30:51;;;;;;;6.35;1.65;;;;;;;17.54;74.22;99190.88;5030263;28;20029;-76
2023/05/19 08:33:16;;;;;;;8.93;2.15;;;;;;;17.06;76.40;99183.75;5032173;28;20048;-75
2023/05/19 08:35:41;;;;;;;9.05;1.98;;;;;;;17.01;77.55;99200.84;5045921;28;20071;-73
2023/05/19 08:38:07;;;;;;;6.25;1.80;;;;;;;16.83;79.76;99185.38;5038727;28;20120;-74
2023/05/19 08:40:33;;;;;;;8.90;2.22;;;;;;;16.96;84.41;99184.31;5026228;28;20383;-72
2023/05/19 08:42:59;;;;;;;7.82;2.22;;;;;;;16.97;79.71;99194.19;5025108;28;20033;-75
2023/05/19 08:45:25;;;;;;;6.78;2.38;;;;;;;16.59;82.67;99179.00;5024434;28;20076;-74
2023/05/19 08:47:51;;;;;;;4.32;1.73;;;;;;;16.69;87.89;99188.50;5037572;28;20025;-73
2023/05/19 08:50:23;;;;;;;11.38;2.45;;;;;;;16.81;85.91;99182.03;5034351;28;20018;-73
2023/05/19 08:52:56;;;;;;;11.10;1.90;;;;;;;16.94;82.42;99199.28;5025734;28;20033;-75
2023/05/19 08:55:32;;;;;;;3.95;1.80;;;;;;;16.73;84.04;99198.75;5030752;28;20022;-74
2023/05/19 08:57:58;;;;;;;5.68;2.30;;;;;;;16.96;85.75;99205.38;5024387;28;20033;-74
2023/05/19 09:00:24;;;;;;;5.90;2.20;;;;;;;17.22;86.62;99183.03;5028948;28;20055;-73
2023/05/19 09:02:50;;;;;;;6.10;2.00;;;;;;;17.39;80.19;99182.31;5027494;28;20132;-74
2023/05/19 09:05:17;;;;;;;11.25;2.70;;;;;;;17.62;78.41;99190.50;5032120;28;20026;-73
2023/05/19 09:07:43;;;;;;;9.60;2.20;;;;;;;17.74;79.40;99196.81;5038594;28;20025;-74
2023/05/19 09:10:13;;;;;;;6.07;1.85;;;;;;;17.69;79.08;99183.00;5031386;28;20029;-74
2023/05/19 09:12:39;;;;;;;15.50;2.53;;;;;;;17.80;80.42;99183.28;5032424;28;20037;-73
2023/05/19 09:15:07;;;;;;;7.38;2.30;;;;;;;17.54;76.57;99193.63;5035930;28;20035;-73
2023/05/19 09:17:34;;;;;;;4.88;1.85;;;;;;;17.35;78.02;99175.69;5034287;28;20083;-73
2023/05/19 09:20:10;;;;;;;6.30;2.00;;;;;;;17.78;74.91;99178.00;5033010;28;20028;-72
2023/05/19 09:22:46;;;;;;;7.82;2.20;;;;;;;17.94;74.58;99182.75;5026243;28;20071;-72
2023/05/19 09:25:18;;;;;;;7.00;1.85;;;;;;;17.85;75.46;99181.47;5023638;28;20032;-71
2023/05/19 09:27:45;;;;;;;6.90;2.35;;;;;;;17.90;75.74;99178.00;5031483;28;20132;-70
2023/05/19 09:30:11;;;;;;;4.70;2.17;;;;;;;17.99;73.10;99181.19;5026634;28;20033;-71
2023/05/19 09:32:37;;;;;;;9.80;2.60;;;;;;;18.05;73.27;99186.53;5027395;28;20108;-71
2023/05/19 09:35:03;;;;;;;7.57;2.25;;;;;;;18.09;73.46;99171.28;5032427;28;20115;-71
2023/05/19 09:37:28;;;;;;;9.13;2.50;;;;;;;17.64;74.78;99174.69;5033559;28;20033;-71
2023/05/19 09:39:53;;;;;;;5.13;1.95;;;;;;;17.48;77.90;99184.47;5026060;28;20114;-71
2023/05/19 09:42:26;;;;;;;6.80;1.67;;;;;;;17.34;79.51;99191.22;5038529;28;20025;-71
2023/05/19 09:45:02;;;;;;;5.97;1.70;;;;;;;17.18;78.56;99181.84;5025962;28;20025;-71
2023/05/19 09:47:32;;;;;;;9.73;2.15;;;;;;;17.28;79.77;99193.03;5031854;28;20131;-69
2023/05/19 09:49:57;;;;;;;7.15;2.00;;;;;;;17.56;80.35;99187.91;5022533;28;20036;-70
2023/05/19 09:52:23;;;;;;;8.00;2.13;;;;;;;17.65;77.65;99181.00;5026541;28;20388;-71
2023/05/19 09:54:50;;;;;;;6.70;1.65;;;;;;;17.63;79.64;99184.00;5024848;28;20072;-71
2023/05/19 09:57:15;;;;;;;8.90;1.90;;;;;;;17.88;77.19;99166.47;5028132;28;20487;-71
2023/05/19 09:59:42;;;;;;;8.05;1.73;;;;;;;17.65;76.30;99170.06;5031078;28;20075;-71
2023/05/19 10:02:15;;;;;;;5.55;1.85;;;;;;;17.56;76.47;99177.81;5033112;28;20032;-71
2023/05/19 10:04:41;;;;;;;8.13;2.00;;;;;;;17.77;76.48;99170.88;5024768;28;20049;-71
2023/05/19 10:07:08;;;;;;;7.20;2.15;;;;;;;18.03;76.90;99168.69;5038068;28;20158;-71
2023/05/19 10:09:35;;;;;;;5.10;2.13;;;;;;;18.12;73.61;99176.25;5022484;28;20032;-71
2023/05/19 10:12:01;;;;;;;5.25;2.00;;;;;;;18.17;75.53;99173.63;5027949;28;20028;-71
2023/05/19 10:14:28;;;;;;;9.15;2.20;;;;;;;18.79;75.34;99164.66;5025031;28;20034;-71
2023/05/19 10:16:56;;;;;;;3.05;1.63;;;;;;;19.22;72.92;99167.81;5027740;28;20030;-71
2023/05/19 10:19:27;;;;;;;7.40;2.17;;;;;;;18.92;73.32;99152.53;5021778;28;20048;-71
2023/05/19 10:21:52;;;;;;;4.82;1.80;;;;;;;19.15;72.02;99158.91;5037611;28;20052;-71
2023/05/19 10:24:20;;;;;;;6.50;1.95;;;;;;;19.23;71.14;99161.22;5032418;28;20045;-72
2023/05/19 10:27:02;;;;;;;8.20;2.22;;;;;;;19.22;70.77;99168.63;5027297;28;20040;-70
2023/05/19 10:29:30;;;;;;;5.25;2.15;;;;;;;18.78;71.22;99167.63;5026640;28;20035;-71
2023/05/19 10:31:59;;;;;;;7.38;2.17;;;;;;;18.11;72.38;99149.97;5017134;28;20076;-70
2023/05/19 10:34:36;;;;;;;;;;;;;;;18.08;72.23;99166.88;5026970;28;20029;-69
2023/05/19 10:37:25;;;;;;;5.53;1.95;;;;;;;18.09;72.89;99165.81;5032378;28;19940;-70
2023/05/19 10:39:52;;;;;;;6.55;2.20;;;;;;;17.64;77.45;99158.28;5030438;28;20030;-70
2023/05/19 10:42:39;;;;;;;8.77;2.33;;;;;;;17.04;77.78;99148.44;5018431;28;20379;-71
2023/05/19 10:45:19;;;;;;;5.50;2.05;;;;;;;17.05;82.27;99157.47;5029868;28;20040;-70
2023/05/19 10:47:45;;;;;;;5.05;1.88;;;;;;;16.95;83.01;99159.94;5034016;28;20025;-71
2023/05/19 10:50:10;;;;;;;4.40;2.20;;;;;;;17.18;82.71;99170.91;5039671;28;20028;-71
2023/05/19 10:52:37;;;;;;;6.35;2.03;;;;;;;17.25;86.61;99166.16;5025660;28;20021;-71
2023/05/19 10:55:03;;;;;;;7.68;2.22;;;;;;;17.35;81.84;99162.84;5029859;28;20387;-70
2023/05/19 10:57:31;;;;;;;4.45;1.92;;;;;;;17.89;80.21;99160.75;5052103;28;20061;-71
2023/05/19 10:59:58;;;;;;;5.82;2.10;;;;;;;18.06;76.68;99171.78;5029026;28;20550;-71
2023/05/19 11:02:41;;;;;;;6.05;2.33;;;;;;;18.31;77.30;99165.13;5030027;28;20036;-71
2023/05/19 11:05:13;;;;;;;6.60;1.88;;;;;;;18.78;75.82;99151.19;5032194;28;20029;-71
2023/05/19 11:07:43;;;;;;;4.07;2.00;;;;;;;19.51;71.98;99153.97;5037748;28;20563;-72
2023/05/19 11:10:09;;;;;;;7.90;2.25;;;;;;;19.59;69.29;99145.28;5025120;28;20109;-72
2023/05/19 11:12:44;;;;;;;8.38;2.33;;;;;;;19.10;67.92;99139.63;5019146;28;20061;-71
2023/05/19 11:15:13;;;;;;;5.35;2.25;;;;;;;18.98;71.12;99153.44;5021860;28;20108;-72
2023/05/19 11:17:43;;;;;;;4.82;1.90;;;;;;;18.53;72.78;99148.81;5032585;28;20043;-71
2023/05/19 11:20:20;;;;;;;6.90;2.30;;;;;;;18.25;74.69;99147.75;5032875;28;20502;-71
2023/05/19 11:23:03;;;;;;;6.10;2.03;;;;;;;17.98;80.38;99149.44;5025818;28;20116;-72
2023/05/19 11:25:40;;;;;;;3.92;1.88;;;;;;;17.69;82.13;99154.81;5023878;28;20109;-71
2023/05/19 11:28:06;;;;;;;9.10;2.13;;;;;;;17.32;80.95;99144.19;5029734;28;20124;-71
2023/05/19 11:30:31;;;;;;;8.65;2.20;;;;;;;17.51;86.11;99139.38;5031485;28;20033;-71
2023/05/19 11:32:57;;;;;;;8.88;2.20;;;;;;;17.98;85.18;99122.88;5033633;28;20026;-72